createdAt,value
2018-07-30T00:02:19.369Z,98947.47
2018-07-30T00:04:47.150Z,98944.71
2018-07-30T00:07:14.927Z,98946.47
2018-07-30T00:09:42.714Z,98948.70
2018-07-30T00:12:10.504Z,98944.98
2018-07-30T00:14:38.369Z,98951.50
2018-07-30T00:17:06.229Z,98949.46
2018-07-30T00:19:34.066Z,98955.52
2018-07-30T00:22:01.866Z,98952.05
2018-07-30T00:24:29.635Z,98954.70
2018-07-30T00:26:57.446Z,98957.92
2018-07-30T00:29:25.222Z,98956.44
2018-07-30T00:31:52.990Z,98947.69
2018-07-30T00:34:20.761Z,98943.66
2018-07-30T00:36:48.564Z,98940.48
2018-07-30T00:39:16.360Z,98940.02
2018-07-30T00:41:44.126Z,98952.28
2018-07-30T00:44:11.893Z,98949.04
2018-07-30T00:46:39.645Z,98946.64
2018-07-30T00:49:07.825Z,98951.76
2018-07-30T00:51:35.719Z,98954.90
2018-07-30T00:54:03.457Z,98947.36
2018-07-30T00:56:31.272Z,98951.13
2018-07-30T00:58:59.031Z,98954.27
2018-07-30T01:01:26.789Z,98955.98
2018-07-30T01:03:54.573Z,98947.59
2018-07-30T01:06:22.362Z,98951.70
2018-07-30T01:08:50.196Z,98954.73
2018-07-30T01:11:17.982Z,98957.59
2018-07-30T01:13:45.813Z,98962.80
2018-07-30T01:16:13.603Z,98966.13
2018-07-30T01:18:41.377Z,98965.55
2018-07-30T01:21:09.306Z,98963.31
2018-07-30T01:23:37.117Z,98960.65
2018-07-30T01:26:10.522Z,98966.63
2018-07-30T01:28:38.288Z,98960.22
2018-07-30T01:31:06.162Z,98952.77
2018-07-30T01:33:33.934Z,98948.28
2018-07-30T01:36:01.743Z,98953.09
2018-07-30T01:38:29.536Z,98951.70
2018-07-30T01:40:57.310Z,98954.13
2018-07-30T01:43:25.077Z,98953.09
2018-07-30T01:45:52.841Z,98965.39
2018-07-30T01:48:20.593Z,98964.47
2018-07-30T01:50:48.392Z,98968.02
2018-07-30T01:53:16.204Z,98964.09
2018-07-30T01:55:44.002Z,98953.05
2018-07-30T01:58:11.782Z,98961.91
2018-07-30T02:00:39.646Z,98958.64
2018-07-30T02:03:07.485Z,98958.39
2018-07-30T02:05:35.236Z,98965.90
2018-07-30T02:08:03.033Z,98962.78
2018-07-30T02:10:30.830Z,98962.97
2018-07-30T02:12:58.610Z,98959.30
2018-07-30T02:15:26.422Z,98954.55
2018-07-30T02:17:54.194Z,98963.73
2018-07-30T02:20:22.039Z,98957.82
2018-07-30T02:22:49.826Z,98952.62
2018-07-30T02:25:17.630Z,98959.53
2018-07-30T02:27:45.470Z,98946.84
2018-07-30T02:30:13.234Z,98955.41
2018-07-30T02:32:41.040Z,98949.59
2018-07-30T02:35:09.265Z,98952.29
2018-07-30T02:37:37.187Z,98941.00
2018-07-30T02:40:05.737Z,98943.84
2018-07-30T02:42:33.494Z,98948.64
2018-07-30T02:45:01.550Z,98949.86
2018-07-30T02:47:29.381Z,98946.67
2018-07-30T02:49:57.173Z,98949.83
2018-07-30T02:52:25.046Z,98955.39
2018-07-30T02:54:52.874Z,98952.01
2018-07-30T02:57:20.653Z,98952.95
2018-07-30T02:59:48.461Z,98956.44
2018-07-30T03:02:16.402Z,98960.22
2018-07-30T03:04:44.201Z,98956.17
2018-07-30T03:07:12.001Z,98952.59
2018-07-30T03:09:39.765Z,98955.52
2018-07-30T03:12:07.618Z,98959.27
2018-07-30T03:14:35.396Z,98954.23
2018-07-30T03:17:03.197Z,98956.85
2018-07-30T03:19:31.033Z,98965.33
2018-07-30T03:21:58.798Z,98963.44
2018-07-30T03:24:26.616Z,98959.72
2018-07-30T03:26:54.390Z,98960.39
2018-07-30T03:29:22.197Z,98954.86
2018-07-30T03:31:50.002Z,98959.69
2018-07-30T03:34:17.800Z,98958.31
2018-07-30T03:36:45.605Z,98972.79
2018-07-30T03:39:13.383Z,98975.82
2018-07-30T03:41:41.153Z,98977.54
2018-07-30T03:44:08.929Z,98978.75
2018-07-30T03:46:36.746Z,98976.20
2018-07-30T03:49:04.894Z,98980.22
2018-07-30T03:51:32.726Z,98985.80
2018-07-30T03:54:00.509Z,98983.25
2018-07-30T03:56:28.283Z,98987.59
2018-07-30T03:58:56.059Z,98998.80
2018-07-30T04:01:23.862Z,98998.61
2018-07-30T04:03:51.665Z,99002.45
2018-07-30T04:06:19.465Z,99005.48
2018-07-30T04:08:47.244Z,99007.48
2018-07-30T04:11:15.026Z,99014.92
2018-07-30T04:13:42.823Z,99013.70
2018-07-30T04:16:10.732Z,99018.83
2018-07-30T04:18:38.546Z,99024.19
2018-07-30T04:21:06.343Z,99021.77
2018-07-30T04:23:34.109Z,99016.06
2018-07-30T04:26:01.914Z,99017.06
2018-07-30T04:28:29.709Z,99012.35
2018-07-30T04:30:57.481Z,99014.36
2018-07-30T04:33:25.293Z,99013.51
2018-07-30T04:35:53.070Z,99009.38
2018-07-30T04:38:20.864Z,99011.00
2018-07-30T04:40:48.670Z,99007.42
2018-07-30T04:43:16.438Z,99014.88
2018-07-30T04:45:44.203Z,99014.69
2018-07-30T04:48:11.972Z,99001.55
2018-07-30T04:50:39.774Z,99006.10
2018-07-30T04:53:07.554Z,99005.13
2018-07-30T04:55:35.329Z,98997.02
2018-07-30T04:58:03.117Z,98993.86
2018-07-30T05:00:30.969Z,98995.77
2018-07-30T05:03:00.302Z,98999.80
2018-07-30T05:05:28.051Z,98992.04
2018-07-30T05:07:55.819Z,98996.00
2018-07-30T05:10:23.638Z,98994.17
2018-07-30T05:12:51.406Z,98990.21
2018-07-30T05:15:19.174Z,98996.88
2018-07-30T05:17:46.945Z,99005.03
2018-07-30T05:20:14.728Z,99000.03
2018-07-30T05:22:42.544Z,99004.23
2018-07-30T05:25:10.355Z,99002.03
2018-07-30T05:27:38.146Z,99000.48
2018-07-30T05:30:06.121Z,99004.75
2018-07-30T05:32:33.928Z,99004.57
2018-07-30T05:35:01.760Z,99000.51
2018-07-30T05:37:29.573Z,99016.46
2018-07-30T05:39:57.349Z,99017.31
2018-07-30T05:42:25.141Z,99016.44
2018-07-30T05:44:52.920Z,99026.59
2018-07-30T05:47:20.732Z,99029.95
2018-07-30T05:49:48.554Z,99034.56
2018-07-30T05:52:16.334Z,99031.53
2018-07-30T05:54:44.138Z,99036.64
2018-07-30T05:57:11.922Z,99035.47
2018-07-30T05:59:39.715Z,99040.47
2018-07-30T06:02:07.513Z,99034.57
2018-07-30T06:04:35.368Z,99041.70
2018-07-30T06:07:03.221Z,99044.35
2018-07-30T06:09:31.029Z,99045.63
2018-07-30T06:11:58.836Z,99049.81
2018-07-30T06:14:26.585Z,99055.91
2018-07-30T06:16:54.388Z,99041.03
2018-07-30T06:19:22.197Z,99047.42
2018-07-30T06:21:49.977Z,99053.84
2018-07-30T06:24:17.729Z,99057.98
2018-07-30T06:26:45.490Z,99052.77
2018-07-30T06:29:13.312Z,99057.48
2018-07-30T06:31:41.112Z,99049.58
2018-07-30T06:34:08.886Z,99053.34
2018-07-30T06:36:36.693Z,99051.58
2018-07-30T06:39:07.040Z,99063.20
2018-07-30T06:41:34.930Z,99062.20
2018-07-30T06:44:02.809Z,99073.44
2018-07-30T06:46:30.650Z,99069.54
2018-07-30T06:48:58.425Z,99075.48
2018-07-30T06:51:26.264Z,99061.66
2018-07-30T06:53:54.104Z,99064.42
2018-07-30T06:56:21.857Z,99065.80
2018-07-30T06:58:49.638Z,99070.22
2018-07-30T07:01:17.443Z,99068.97
2018-07-30T07:03:45.223Z,99073.75
2018-07-30T07:06:12.995Z,99076.91
2018-07-30T07:08:40.763Z,99073.11
2018-07-30T07:11:08.600Z,99070.86
2018-07-30T07:13:36.395Z,99068.04
2018-07-30T07:16:04.332Z,99073.73
2018-07-30T07:18:32.153Z,99070.74
2018-07-30T07:20:59.974Z,99070.35
2018-07-30T07:23:27.721Z,99068.70
2018-07-30T07:25:55.579Z,99064.05
2018-07-30T07:28:23.365Z,99063.61
2018-07-30T07:30:51.220Z,99066.50
2018-07-30T07:33:19.021Z,99063.95
2018-07-30T07:35:46.787Z,99061.53
2018-07-30T07:38:14.613Z,99067.56
2018-07-30T07:40:42.407Z,99063.03
2018-07-30T07:43:10.240Z,99071.23
2018-07-30T07:45:38.030Z,99075.84
2018-07-30T07:48:05.912Z,99069.95
2018-07-30T07:50:33.911Z,99070.30
2018-07-30T07:53:01.635Z,99069.00
2018-07-30T07:55:29.425Z,99074.97
2018-07-30T07:57:57.268Z,99069.27
2018-07-30T08:00:25.033Z,99064.69
2018-07-30T08:02:52.853Z,99063.57
2018-07-30T08:05:20.678Z,99063.79
2018-07-30T08:07:48.503Z,99057.75
2018-07-30T08:10:16.358Z,99057.67
2018-07-30T08:12:44.174Z,99054.13
2018-07-30T08:15:11.981Z,99049.25
2018-07-30T08:17:39.810Z,99049.72
2018-07-30T08:20:08.547Z,99054.03
2018-07-30T08:22:36.713Z,99061.45
2018-07-30T08:25:07.067Z,99055.66
2018-07-30T08:27:34.893Z,99061.06
2018-07-30T08:30:02.732Z,99064.66
2018-07-30T08:32:30.599Z,99062.77
2018-07-30T08:34:58.419Z,99069.19
2018-07-30T08:37:26.340Z,99060.95
2018-07-30T08:39:54.151Z,99059.64
2018-07-30T08:42:21.994Z,99065.74
2018-07-30T08:44:49.827Z,99066.87
2018-07-30T08:47:17.634Z,99066.95
2018-07-30T08:49:45.461Z,99062.94
2018-07-30T08:52:13.227Z,99060.70
2018-07-30T08:54:41.029Z,99060.12
2018-07-30T08:57:08.839Z,99060.01
2018-07-30T08:59:36.649Z,99053.48
2018-07-30T09:02:04.486Z,99055.41
2018-07-30T09:04:32.301Z,99054.64
2018-07-30T09:07:00.119Z,99047.28
2018-07-30T09:09:27.974Z,99051.93
2018-07-30T09:11:55.829Z,99050.06
2018-07-30T09:14:23.622Z,99051.61
2018-07-30T09:16:51.664Z,99048.67
2018-07-30T09:19:19.538Z,99033.20
2018-07-30T09:21:47.373Z,99038.78
2018-07-30T09:24:15.134Z,99034.44
2018-07-30T09:26:42.954Z,99036.86
2018-07-30T09:29:10.725Z,99038.56
2018-07-30T09:31:38.510Z,99033.07
2018-07-30T09:34:06.465Z,99043.49
2018-07-30T09:36:34.302Z,99043.75
2018-07-30T09:39:02.095Z,99041.70
2018-07-30T09:41:29.868Z,99044.47
2018-07-30T09:43:57.642Z,99039.03
2018-07-30T09:46:25.455Z,99037.17
2018-07-30T09:48:53.272Z,99034.83
2018-07-30T09:51:21.066Z,99033.30
2018-07-30T09:53:48.887Z,99022.36
2018-07-30T09:56:16.715Z,99015.45
2018-07-30T09:58:44.478Z,99013.06
2018-07-30T10:01:17.672Z,99012.62
2018-07-30T10:03:45.472Z,99018.13
2018-07-30T10:06:13.308Z,99023.09
2018-07-30T10:08:41.065Z,99032.81
2018-07-30T10:11:08.825Z,99024.30
2018-07-30T10:13:36.622Z,99006.03
2018-07-30T10:16:04.407Z,99011.30
2018-07-30T10:18:32.177Z,99005.77
2018-07-30T10:21:00.026Z,99005.10
2018-07-30T10:23:27.798Z,99013.78
2018-07-30T10:25:55.568Z,99002.55
2018-07-30T10:28:23.379Z,99004.19
2018-07-30T10:30:51.195Z,99006.73
2018-07-30T10:33:19.015Z,99011.37
2018-07-30T10:35:46.840Z,99009.30
2018-07-30T10:38:14.741Z,99011.36
2018-07-30T10:40:42.466Z,99018.05
2018-07-30T10:43:10.275Z,99017.97
2018-07-30T10:45:38.089Z,99032.77
2018-07-30T10:48:05.958Z,99030.55
2018-07-30T10:50:33.776Z,99032.73
2018-07-30T10:53:01.544Z,99043.16
2018-07-30T10:55:29.361Z,99052.58
2018-07-30T10:57:57.118Z,99053.41
2018-07-30T11:00:24.911Z,99057.67
2018-07-30T11:02:52.711Z,99052.70
2018-07-30T11:05:20.597Z,99058.38
2018-07-30T11:07:48.431Z,99048.16
2018-07-30T11:10:16.233Z,99049.54
2018-07-30T11:12:44.024Z,99041.02
2018-07-30T11:15:11.834Z,99042.63
2018-07-30T11:17:40.551Z,99034.28
2018-07-30T11:20:08.400Z,99039.92
2018-07-30T11:22:36.174Z,99033.09
2018-07-30T11:25:03.998Z,99035.16
2018-07-30T11:27:31.765Z,99029.92
2018-07-30T11:29:59.569Z,99033.03
2018-07-30T11:32:27.369Z,99034.16
2018-07-30T11:34:55.137Z,99033.42
2018-07-30T11:37:22.897Z,99036.62
2018-07-30T11:39:50.683Z,99037.19
2018-07-30T11:42:18.547Z,99037.16
2018-07-30T11:44:46.343Z,99036.42
2018-07-30T11:47:14.125Z,99043.42
2018-07-30T11:49:41.948Z,99041.95
2018-07-30T11:52:09.733Z,99042.09
2018-07-30T11:54:37.486Z,99044.91
2018-07-30T11:57:05.334Z,99040.92
2018-07-30T11:59:33.158Z,99029.45
2018-07-30T12:02:00.942Z,99023.16
2018-07-30T12:04:28.834Z,99011.94
2018-07-30T12:06:56.616Z,99014.26
2018-07-30T12:09:24.431Z,99009.08
2018-07-30T12:11:52.286Z,99011.48
2018-07-30T12:14:20.167Z,99009.08
2018-07-30T12:16:47.982Z,99001.64
2018-07-30T12:19:15.771Z,98989.76
2018-07-30T12:21:43.613Z,98986.32
2018-07-30T12:24:11.394Z,98986.61
2018-07-30T12:26:39.218Z,98988.94
2018-07-30T12:29:07.031Z,98988.36
2018-07-30T12:31:34.814Z,98991.14
2018-07-30T12:34:02.914Z,99000.77
2018-07-30T12:36:30.779Z,99005.08
2018-07-30T12:38:58.653Z,99001.68
2018-07-30T12:41:26.458Z,99003.13
2018-07-30T12:43:54.322Z,99007.66
2018-07-30T12:46:22.113Z,99007.16
2018-07-30T12:48:49.895Z,99006.16
2018-07-30T12:51:17.736Z,99010.87
2018-07-30T12:53:45.582Z,98992.33
2018-07-30T12:56:13.374Z,98998.86
2018-07-30T12:58:42.603Z,98993.52
2018-07-30T13:01:10.535Z,98999.67
2018-07-30T13:03:38.354Z,98997.27
2018-07-30T13:06:06.303Z,98993.31
2018-07-30T13:08:34.095Z,98992.47
2018-07-30T13:11:01.906Z,98996.06
2018-07-30T13:13:29.729Z,98993.66
2018-07-30T13:15:57.627Z,98991.66
2018-07-30T13:18:25.434Z,98994.48
2018-07-30T13:20:53.239Z,98999.83
2018-07-30T13:23:21.049Z,99005.86
2018-07-30T13:25:48.880Z,99000.34
2018-07-30T13:28:16.703Z,98997.98
2018-07-30T13:30:44.501Z,99001.95
2018-07-30T13:33:12.285Z,99001.13
2018-07-30T13:35:40.071Z,98996.83
2018-07-30T13:38:08.058Z,99003.67
2018-07-30T13:40:35.976Z,99003.61
2018-07-30T13:43:03.791Z,98999.72
2018-07-30T13:45:31.593Z,98996.56
2018-07-30T13:47:59.370Z,98999.86
2018-07-30T13:50:27.230Z,98996.43
2018-07-30T13:52:55.001Z,98994.93
2018-07-30T13:55:22.775Z,98990.53
2018-07-30T13:57:50.559Z,98981.84
2018-07-30T14:00:18.371Z,98976.83
2018-07-30T14:02:46.255Z,98974.17
2018-07-30T14:05:14.092Z,98972.55
2018-07-30T14:07:41.911Z,98962.10
2018-07-30T14:10:10.187Z,98970.74
2018-07-30T14:12:38.237Z,98981.84
2018-07-30T14:15:06.669Z,98998.92
2018-07-30T14:17:34.523Z,99008.88
2018-07-30T14:20:02.293Z,99011.00
2018-07-30T14:22:30.150Z,99000.75
2018-07-30T14:24:57.968Z,98998.65
2018-07-30T14:27:25.764Z,98991.30
2018-07-30T14:29:53.605Z,98983.78
2018-07-30T14:32:21.396Z,98978.73
2018-07-30T14:34:49.274Z,98986.82
2018-07-30T14:37:17.109Z,98987.07
2018-07-30T14:39:44.926Z,98989.63
2018-07-30T14:42:12.767Z,98979.09
2018-07-30T14:44:40.672Z,98982.91
2018-07-30T14:47:08.605Z,98978.83
2018-07-30T14:49:36.466Z,98985.57
2018-07-30T14:52:04.387Z,98993.95
2018-07-30T14:54:32.334Z,98991.44
2018-07-30T14:57:00.174Z,98995.81
2018-07-30T14:59:28.191Z,98992.98
2018-07-30T15:01:56.005Z,98997.53
2018-07-30T15:04:23.875Z,99003.57
2018-07-30T15:06:51.814Z,99009.12
2018-07-30T15:09:19.738Z,99001.13
2018-07-30T15:11:47.661Z,99005.50
2018-07-30T15:14:15.519Z,99008.17
2018-07-30T15:16:43.378Z,99005.59
2018-07-30T15:19:11.329Z,99006.94
2018-07-30T15:21:39.173Z,99005.11
2018-07-30T15:24:07.060Z,98994.14
2018-07-30T15:26:34.901Z,98995.90
2018-07-30T15:29:02.786Z,98993.02
2018-07-30T15:31:30.881Z,98985.27
2018-07-30T15:33:58.897Z,98984.88
2018-07-30T15:36:26.745Z,98984.98
2018-07-30T15:38:54.616Z,98988.16
2018-07-30T15:41:22.466Z,98989.74
2018-07-30T15:43:50.330Z,98992.47
2018-07-30T15:46:18.145Z,99003.20
2018-07-30T15:48:46.106Z,99005.42
2018-07-30T15:51:14.035Z,99001.98
2018-07-30T15:53:41.942Z,99011.27
2018-07-30T15:56:09.848Z,99018.10
2018-07-30T15:58:38.102Z,99037.28
2018-07-30T16:01:05.981Z,99033.75
2018-07-30T16:03:33.829Z,99036.20
2018-07-30T16:06:02.048Z,99037.46
2018-07-30T16:08:30.336Z,99045.30
2018-07-30T16:10:58.211Z,99042.55
2018-07-30T16:13:26.070Z,99047.70
2018-07-30T16:15:53.960Z,99053.73
2018-07-30T16:18:21.838Z,99053.45
2018-07-30T16:20:50.598Z,99057.70
2018-07-30T16:23:18.615Z,99064.22
2018-07-30T16:25:46.939Z,99068.75
2018-07-30T16:28:14.798Z,99055.61
2018-07-30T16:30:42.735Z,99057.11
2018-07-30T16:33:10.626Z,99053.36
2018-07-30T16:35:38.498Z,99055.04
2018-07-30T16:38:06.337Z,99058.47
2018-07-30T16:40:34.201Z,99057.47
2018-07-30T16:43:02.169Z,99059.31
2018-07-30T16:45:30.426Z,99063.52
2018-07-30T16:47:58.297Z,99066.36
2018-07-30T16:50:26.201Z,99072.98
2018-07-30T16:52:54.110Z,99074.27
2018-07-30T16:55:21.993Z,99084.36
2018-07-30T16:57:49.858Z,99088.30
2018-07-30T17:00:17.829Z,99089.07
2018-07-30T17:02:45.706Z,99085.32
2018-07-30T17:05:16.530Z,99084.44
2018-07-30T17:07:44.414Z,99081.38
2018-07-30T17:10:12.327Z,99074.10
2018-07-30T17:12:40.252Z,99074.58
2018-07-30T17:15:08.101Z,99077.10
2018-07-30T17:17:35.961Z,99073.02
2018-07-30T17:20:05.667Z,99086.67
2018-07-30T17:22:33.477Z,99087.13
2018-07-30T17:25:01.375Z,99084.39
2018-07-30T17:27:29.259Z,99090.03
2018-07-30T17:29:57.161Z,99097.72
2018-07-30T17:32:25.110Z,99100.64
2018-07-30T17:34:52.968Z,99106.68
2018-07-30T17:37:20.862Z,99102.50
2018-07-30T17:39:48.717Z,99104.71
2018-07-30T17:42:16.555Z,99106.66
2018-07-30T17:44:44.420Z,99109.84
2018-07-30T17:47:12.290Z,99111.06
2018-07-30T17:49:40.163Z,99119.50
2018-07-30T17:52:08.068Z,99120.69
2018-07-30T17:54:35.966Z,99119.36
2018-07-30T17:57:03.934Z,99119.02
2018-07-30T17:59:31.822Z,99116.61
2018-07-30T18:01:59.763Z,99105.47
2018-07-30T18:04:27.681Z,99114.02
2018-07-30T18:06:55.566Z,99120.61
2018-07-30T18:09:23.453Z,99127.38
2018-07-30T18:11:51.324Z,99123.00
2018-07-30T18:14:19.236Z,99115.98
2018-07-30T18:16:47.157Z,99118.80
2018-07-30T18:19:15.006Z,99114.72
2018-07-30T18:21:43.234Z,99123.97
2018-07-30T18:24:11.113Z,99125.71
2018-07-30T18:26:39.013Z,99127.56
2018-07-30T18:29:07.249Z,99134.72
2018-07-30T18:31:35.126Z,99146.34
2018-07-30T18:34:03.054Z,99147.37
2018-07-30T18:36:31.016Z,99149.16
2018-07-30T18:38:58.916Z,99151.30
2018-07-30T18:41:26.888Z,99151.11
2018-07-30T18:43:54.737Z,99148.29
2018-07-30T18:46:22.722Z,99150.00
2018-07-30T18:48:50.565Z,99148.94
2018-07-30T18:51:18.897Z,99146.38
2018-07-30T18:53:46.750Z,99145.95
2018-07-30T18:56:14.725Z,99147.20
2018-07-30T18:58:42.665Z,99143.45
2018-07-30T19:01:10.599Z,99157.48
2018-07-30T19:03:38.541Z,99161.34
2018-07-30T19:06:07.486Z,99168.73
2018-07-30T19:08:35.405Z,99157.82
2018-07-30T19:11:03.349Z,99165.65
2018-07-30T19:13:31.252Z,99165.55
2018-07-30T19:15:59.180Z,99175.57
2018-07-30T19:18:27.094Z,99175.00
2018-07-30T19:20:55.005Z,99179.87
2018-07-30T19:23:22.885Z,99172.80
2018-07-30T19:25:50.762Z,99175.88
2018-07-30T19:28:18.669Z,99169.28
2018-07-30T19:30:46.536Z,99169.38
2018-07-30T19:33:14.937Z,99172.80
2018-07-30T19:35:42.877Z,99165.61
2018-07-30T19:38:10.785Z,99162.27
2018-07-30T19:40:38.712Z,99164.00
2018-07-30T19:43:07.245Z,99167.99
2018-07-30T19:45:35.142Z,99171.76
2018-07-30T19:48:03.109Z,99170.17
2018-07-30T19:50:31.073Z,99173.75
2018-07-30T19:52:59.129Z,99171.45
2018-07-30T19:55:27.013Z,99171.38
2018-07-30T19:57:55.109Z,99168.59
2018-07-30T20:00:22.887Z,99173.06
2018-07-30T20:02:50.768Z,99170.78
2018-07-30T20:05:18.648Z,99168.08
2018-07-30T20:07:46.549Z,99164.91
2018-07-30T20:10:14.458Z,99160.38
2018-07-30T20:12:42.332Z,99167.84
2018-07-30T20:15:10.290Z,99164.97
2018-07-30T20:17:38.248Z,99173.09
2018-07-30T20:20:10.412Z,99175.87
2018-07-30T20:22:38.213Z,99180.81
2018-07-30T20:25:06.416Z,99169.14
2018-07-30T20:27:34.309Z,99179.20
2018-07-30T20:30:02.278Z,99186.27
2018-07-30T20:32:30.133Z,99179.00
2018-07-30T20:34:58.081Z,99185.41
2018-07-30T20:37:25.962Z,99185.34
2018-07-30T20:39:54.165Z,99190.97
2018-07-30T20:42:22.133Z,99196.81
2018-07-30T20:44:50.005Z,99193.19
2018-07-30T20:47:17.959Z,99194.45
2018-07-30T20:49:45.821Z,99195.58
2018-07-30T20:52:13.669Z,99203.47
2018-07-30T20:54:41.529Z,99205.94
2018-07-30T20:57:09.357Z,99212.73
2018-07-30T20:59:37.251Z,99213.24
2018-07-30T21:02:05.197Z,99210.70
2018-07-30T21:04:33.133Z,99209.95
2018-07-30T21:07:00.905Z,99203.80
2018-07-30T21:09:28.825Z,99211.74
2018-07-30T21:11:56.684Z,99216.53
2018-07-30T21:14:24.565Z,99208.97
2018-07-30T21:16:52.413Z,99216.73
2018-07-30T21:19:20.280Z,99213.81
2018-07-30T21:21:48.121Z,99212.54
2018-07-30T21:24:16.011Z,99215.97
2018-07-30T21:26:43.842Z,99216.46
2018-07-30T21:29:11.665Z,99210.94
2018-07-30T21:31:39.486Z,99214.06
2018-07-30T21:34:07.335Z,99208.73
2018-07-30T21:36:35.382Z,99210.17
2018-07-30T21:39:03.791Z,99209.39
2018-07-30T21:41:31.665Z,99201.61
2018-07-30T21:43:59.490Z,99201.11
2018-07-30T21:46:27.321Z,99200.44
2018-07-30T21:48:55.178Z,99200.15
2018-07-30T21:51:23.026Z,99202.50
2018-07-30T21:53:50.894Z,99204.38
2018-07-30T21:56:18.765Z,99212.49
2018-07-30T21:58:46.680Z,99211.27
2018-07-30T22:01:14.708Z,99207.91
2018-07-30T22:03:42.665Z,99208.55
2018-07-30T22:06:10.604Z,99211.27
2018-07-30T22:08:38.570Z,99213.80
2018-07-30T22:11:06.567Z,99216.45
2018-07-30T22:13:34.492Z,99223.47
2018-07-30T22:16:02.456Z,99217.78
2018-07-30T22:18:30.383Z,99216.61
2018-07-30T22:20:58.355Z,99218.38
2018-07-30T22:23:26.277Z,99219.51
2018-07-30T22:25:54.198Z,99221.53
2018-07-30T22:28:22.163Z,99225.81
2018-07-30T22:30:50.183Z,99224.50
2018-07-30T22:33:18.157Z,99225.36
2018-07-30T22:35:46.131Z,99228.64
2018-07-30T22:38:14.053Z,99224.19
2018-07-30T22:40:41.972Z,99222.77
2018-07-30T22:43:10.363Z,99223.61
2018-07-30T22:45:38.419Z,99225.52
2018-07-30T22:48:06.325Z,99224.13
2018-07-30T22:50:34.463Z,99223.00
2018-07-30T22:53:02.403Z,99213.00
2018-07-30T22:55:30.335Z,99211.02
2018-07-30T22:57:58.313Z,99213.38
2018-07-30T23:00:26.288Z,99209.63
2018-07-30T23:02:54.310Z,99211.76
2018-07-30T23:05:22.257Z,99210.00
2018-07-30T23:07:50.219Z,99204.61
2018-07-30T23:10:18.167Z,99196.48
2018-07-30T23:12:46.116Z,99201.88
2018-07-30T23:15:14.036Z,99203.05
2018-07-30T23:17:41.905Z,99204.41
2018-07-30T23:20:09.761Z,99198.89
2018-07-30T23:22:37.606Z,99208.78
2018-07-30T23:25:05.441Z,99204.09
2018-07-30T23:27:33.338Z,99218.14
2018-07-30T23:30:01.202Z,99208.20
2018-07-30T23:32:29.108Z,99206.80
2018-07-30T23:34:57.021Z,99206.54
2018-07-30T23:37:25.073Z,99213.73
2018-07-30T23:39:52.922Z,99214.53
2018-07-30T23:42:20.840Z,99198.34
2018-07-30T23:44:48.829Z,99200.83
2018-07-30T23:47:16.795Z,99197.49
2018-07-30T23:49:44.701Z,99206.02
2018-07-30T23:52:12.679Z,99207.11
2018-07-30T23:54:40.619Z,99207.16
2018-07-30T23:57:08.539Z,99213.14
2018-07-30T23:59:36.507Z,99202.67
